Time;durP1;ratioP1;P1;durP2;ratioP2;P2;SDS_P1;SDS_P2;PMS_P1;PMS_P2;Temp;Humidity;BMP_temperature;BMP_pressure;BME280_temperature;BME280_humidity;BME280_pressure;Samples;Min_cycle;Max_cycle;Signal;HPM_P1;HPM_P2
2022/06/13 00:00:49;;;;;;;;;;;;;;;18.37;61.54;100140.44;5069495;28;851;-65
2022/06/13 00:03:15;;;;;;;;;;;;;;;18.19;62.19;100146.78;5053061;28;1135;-64
2022/06/13 00:05:40;;;;;;;;;;;;;;;17.68;63.77;100145.59;5074778;28;979;-65
2022/06/13 00:08:06;;;;;;;;;;;;;;;17.39;64.57;100135.50;5074036;28;1154;-65
2022/06/13 00:10:31;;;;;;;;;;;;;;;17.71;64.04;100137.59;5062828;28;1059;-65
2022/06/13 00:12:57;;;;;;;;;;;;;;;18.24;62.25;100130.19;5068479;28;821;-65
2022/06/13 00:15:22;;;;;;;;;;;;;;;18.13;62.50;100130.38;5063473;28;1118;-65
2022/06/13 00:17:48;;;;;;;;;;;;;;;17.88;63.13;100133.47;5069686;28;1903;-64
2022/06/13 00:20:13;;;;;;;;;;;;;;;17.86;63.30;100138.47;5069764;28;1082;-65
2022/06/13 00:22:38;;;;;;;;;;;;;;;17.93;63.11;100136.19;5075878;28;1139;-62
2022/06/13 00:25:04;;;;;;;;;;;;;;;18.23;62.07;100129.38;5049304;28;991;-63
2022/06/13 00:27:30;;;;;;;;;;;;;;;18.18;62.42;100139.66;5063001;28;1020;-64
2022/06/13 00:29:55;;;;;;;;;;;;;;;18.08;62.60;100137.88;5067751;28;989;-64
2022/06/13 00:32:21;;;;;;;;;;;;;;;17.88;63.20;100149.97;5070020;28;1000;-64
2022/06/13 00:34:47;;;;;;;;;;;;;;;17.88;63.00;100130.72;5071368;28;1055;-64
2022/06/13 00:37:12;;;;;;;;;;;;;;;18.30;61.81;100137.25;5069277;28;1898;-64
2022/06/13 00:39:38;;;;;;;;;;;;;;;18.50;61.33;100138.03;5072371;28;1087;-64
2022/06/13 00:42:04;;;;;;;;;;;;;;;18.19;62.19;100131.09;5074970;28;1024;-64
2022/06/13 00:44:30;;;;;;;;;;;;;;;17.88;63.21;100130.72;5067553;28;1201;-64
2022/06/13 00:46:56;;;;;;;;;;;;;;;17.53;64.30;100139.19;5059465;28;965;-62
2022/06/13 00:49:23;;;;;;;;;;;;;;;17.68;64.04;100123.59;5066608;28;1020;-64
2022/06/13 00:51:50;;;;;;;;;;;;;;;17.93;63.13;100131.50;5067628;28;996;-64
2022/06/13 00:54:16;;;;;;;;;;;;;;;18.24;61.90;100125.53;5049990;28;992;-64
2022/06/13 00:56:41;;;;;;;;;;;;;;;18.40;61.61;100126.06;5059023;28;1040;-64
2022/06/13 00:59:09;;;;;;;;;;;;;;;18.03;62.85;100133.25;5068449;28;1914;-64
2022/06/13 01:01:35;;;;;;;;;;;;;;;17.82;63.33;100124.47;5067232;28;1127;-64
2022/06/13 01:04:03;;;;;;;;;;;;;;;17.63;63.99;100127.25;5050302;28;1445;-64
2022/06/13 01:06:30;;;;;;;;;;;;;;;17.76;63.86;100126.47;5055315;28;1138;-64
2022/06/13 01:08:55;;;;;;;;;;;;;;;18.03;62.66;100130.50;5068985;28;851;-64
2022/06/13 01:11:21;;;;;;;;;;;;;;;18.41;61.64;100124.97;5043103;28;988;-64
2022/06/13 01:14:02;;;;;;;;;;;;;;;18.07;62.50;100134.31;5066074;28;992;-64
2022/06/13 01:16:42;;;;;;;;;;;;;;;17.87;63.18;100129.09;5071658;28;961;-64
2022/06/13 01:19:26;;;;;;;;;;;;;;;17.69;63.80;100145.28;5062675;28;1980;-64
2022/06/13 01:22:07;;;;;;;;;;;;;;;18.06;62.52;100134.59;5068757;28;988;-65
2022/06/13 01:24:39;;;;;;;;;;;;;;;18.16;62.20;100126.22;5058763;28;1001;-64
2022/06/13 01:27:09;;;;;;;;;;;;;;;18.05;62.84;100135.75;5070434;28;1123;-64
2022/06/13 01:29:42;;;;;;;;;;;;;;;18.00;62.85;100135.81;5049756;28;902;-64
2022/06/13 01:32:14;;;;;;;;;;;;;;;18.05;62.64;100127.50;5052635;28;1068;-64
2022/06/13 01:34:48;;;;;;;;;;;;;;;18.30;61.81;100140.00;5063868;28;1024;-64
2022/06/13 01:37:37;;;;;;;;;;;;;;;18.47;61.10;100121.00;5067159;28;1976;-63
2022/06/13 01:40:29;;;;;;;;;;;;;;;18.28;61.86;100133.97;5049718;28;1289;-64
2022/06/13 01:43:06;;;;;;;;;;;;;;;18.36;61.57;100141.56;5028630;28;1193;-64
2022/06/13 01:45:45;;;;;;;;;;;;;;;18.20;62.18;100138.25;5053004;28;1055;-63
2022/06/13 01:48:10;;;;;;;;;;;;;;;18.19;62.16;100141.28;5050833;28;1380;-64
2022/06/13 01:50:38;;;;;;;;;;;;;;;18.32;61.85;100132.25;5074637;28;1007;-64
2022/06/13 01:53:24;;;;;;;;;;;;;;;18.53;61.20;100151.19;5071575;28;1110;-64
2022/06/13 01:55:52;;;;;;;;;;;;;;;18.32;61.70;100146.03;5071432;28;1302;-65
2022/06/13 01:58:33;;;;;;;;;;;;;;;18.12;63.23;100130.69;5056980;28;1977;-65
2022/06/13 02:01:09;;;;;;;;;;;;;;;17.66;63.98;100132.13;5052925;28;1146;-65
2022/06/13 02:03:39;;;;;;;;;;;;;;;17.34;63.89;100141.09;5047667;28;961;-65
2022/06/13 02:06:09;;;;;;;;;;;;;;;17.73;62.06;100138.09;5065342;28;964;-65
2022/06/13 02:08:41;;;;;;;;;;;;;;;18.09;59.14;100129.34;5049248;28;1257;-65
2022/06/13 02:11:11;;;;;;;;;;;;;;;17.85;58.98;100150.56;5067420;28;980;-63
2022/06/13 02:13:44;;;;;;;;;;;;;;;17.40;59.19;100140.75;5050830;28;1221;-63
2022/06/13 02:16:24;;;;;;;;;;;;;;;17.41;58.39;100144.31;5049807;28;1086;-63
2022/06/13 02:18:58;;;;;;;;;;;;;;;17.93;56.08;100130.69;5043346;28;1918;-63
2022/06/13 02:21:24;;;;;;;;;;;;;;;17.75;56.25;100132.28;5054042;28;1024;-63
2022/06/13 02:23:51;;;;;;;;;;;;;;;17.69;56.33;100145.28;5055248;28;1035;-64
2022/06/13 02:26:24;;;;;;;;;;;;;;;17.77;55.97;100152.06;5054853;28;1008;-63
2022/06/13 02:28:52;;;;;;;;;;;;;;;18.03;55.05;100133.25;5049496;28;1008;-63
2022/06/13 02:31:21;;;;;;;;;;;;;;;17.65;55.69;100141.50;5046594;28;1143;-63
2022/06/13 02:33:55;;;;;;;;;;;;;;;17.33;56.68;100132.00;5059391;28;972;-63
2022/06/13 02:36:21;;;;;;;;;;;;;;;17.69;55.61;100137.03;5046172;28;1048;-63
2022/06/13 02:38:57;;;;;;;;;;;;;;;17.81;54.97;100146.78;5042182;28;1985;-63
2022/06/13 02:41:23;;;;;;;;;;;;;;;17.39;55.88;100141.84;5046667;28;1198;-63
2022/06/13 02:44:09;;;;;;;;;;;;;;;17.43;55.78;100145.66;5063657;28;1060;-63
2022/06/13 02:46:35;;;;;;;;;;;;;;;17.71;55.09;100161.50;5059995;28;1667;-63
2022/06/13 02:49:02;;;;;;;;;;;;;;;17.56;55.30;100168.84;5055632;28;1062;-64
2022/06/13 02:51:34;;;;;;;;;;;;;;;17.55;55.48;100152.63;5053351;28;1154;-63
2022/06/13 02:54:19;;;;;;;;;;;;;;;17.39;56.23;100158.34;5075731;28;972;-63
2022/06/13 02:59:47;;;;;;;;;;;;;;;18.00;57.89;100160.56;5071077;28;1104;-65
2022/06/13 03:02:13;;;;;;;;;;;;;;;17.77;60.28;100163.06;5064554;28;1383;-65
2022/06/13 03:04:43;;;;;;;;;;;;;;;17.84;61.55;100168.19;5070319;28;964;-63
2022/06/13 03:07:14;;;;;;;;;;;;;;;18.06;61.83;100154.69;5051344;28;1079;-64
2022/06/13 03:09:46;;;;;;;;;;;;;;;18.28;61.83;100161.50;5072815;28;1000;-64
2022/06/13 03:12:14;;;;;;;;;;;;;;;18.04;63.36;100159.66;5052936;28;1008;-64
2022/06/13 03:14:40;;;;;;;;;;;;;;;17.81;64.47;100172.38;5070557;28;1162;-63
2022/06/13 03:17:08;;;;;;;;;;;;;;;17.70;65.06;100166.19;5070383;28;1909;-63
2022/06/13 03:19:39;;;;;;;;;;;;;;;17.77;65.36;100172.13;5051994;28;988;-63
2022/06/13 03:22:10;;;;;;;;;;;;;;;18.35;63.89;100172.94;5043416;28;1017;-61
2022/06/13 03:24:46;;;;;;;;;;;;;;;18.29;64.31;100165.91;5066882;28;909;-64
2022/06/13 03:27:19;;;;;;;;;;;;;;;18.20;64.85;100162.19;5074033;28;1067;-61
2022/06/13 03:29:50;;;;;;;;;;;;;;;18.05;65.32;100180.56;5049497;28;840;-61
2022/06/13 03:32:17;;;;;;;;;;;;;;;17.92;66.19;100178.53;5053470;28;1163;-60
2022/06/13 03:34:44;;;;;;;;;;;;;;;17.97;66.00;100170.22;5052590;28;1075;-61
2022/06/13 03:37:10;;;;;;;;;;;;;;;18.09;65.43;100173.34;5048878;28;1905;-62
2022/06/13 03:39:40;;;;;;;;;;;;;;;18.47;64.67;100170.53;5039456;28;1128;-63
2022/06/13 03:42:26;;;;;;;;;;;;;;;18.75;63.81;100187.13;5051732;28;1036;-61
2022/06/13 03:45:16;;;;;;;;;;;;;;;18.33;65.17;100177.94;5065159;28;1088;-61
2022/06/13 03:47:49;;;;;;;;;;;;;;;17.96;64.87;100174.09;5058470;28;1079;-63
2022/06/13 03:50:21;;;;;;;;;;;;;;;17.31;63.07;100194.72;5045507;28;890;-63
2022/06/13 03:52:48;;;;;;;;;;;;;;;16.96;60.85;100180.25;5074848;28;1227;-62
2022/06/13 03:55:21;;;;;;;;;;;;;;;17.13;56.68;100201.78;5045872;28;1262;-62
2022/06/13 03:57:48;;;;;;;;;;;;;;;17.47;53.48;100200.03;5043172;28;1902;-60
2022/06/13 04:00:19;;;;;;;;;;;;;;;17.75;52.97;100185.38;5046822;28;1433;-61
2022/06/13 04:02:45;;;;;;;;;;;;;;;17.67;53.91;100205.28;5067400;28;1495;-61
2022/06/13 04:05:30;;;;;;;;;;;;;;;17.90;53.71;100198.06;5065265;28;1174;-60
2022/06/13 04:07:55;;;;;;;;;;;;;;;18.09;54.25;100208.28;5061172;28;1043;-61
2022/06/13 04:10:23;;;;;;;;;;;;;;;17.88;55.53;100215.97;5054830;28;1180;-63
2022/06/13 04:13:00;;;;;;;;;;;;;;;17.66;56.87;100205.56;5067375;28;977;-60
2022/06/13 04:15:31;;;;;;;;;;;;;;;17.89;56.59;100212.13;5066482;28;1033;-61
2022/06/13 04:18:03;;;;;;;;;;;;;;;18.07;56.31;100219.59;5065465;28;1905;-61
2022/06/13 04:20:30;;;;;;;;;;;;;;;18.18;56.07;100220.25;5062462;28;1035;-61
2022/06/13 04:22:58;;;;;;;;;;;;;;;17.82;57.05;100225.44;5070402;28;985;-60
2022/06/13 04:25:36;;;;;;;;;;;;;;;17.62;57.96;100227.31;5070559;28;1047;-60
2022/06/13 04:28:34;;;;;;;;;;;;;;;17.78;57.52;100226.03;5074691;28;880;-62
2022/06/13 04:31:00;;;;;;;;;;;;;;;18.21;56.26;100227.13;5003738;28;1185;-61
2022/06/13 04:33:27;;;;;;;;;;;;;;;18.27;56.16;100231.41;5061431;28;1048;-61
2022/06/13 04:35:53;;;;;;;;;;;;;;;17.80;57.38;100236.72;5054262;28;1164;-61
2022/06/13 04:38:19;;;;;;;;;;;;;;;17.93;57.11;100226.94;5048134;28;1942;-63
2022/06/13 04:40:45;;;;;;;;;;;;;;;17.88;57.21;100227.81;5044035;28;1210;-63
2022/06/13 04:43:11;;;;;;;;;;;;;;;18.03;56.90;100228.75;5050816;28;1000;-63
2022/06/13 04:45:43;;;;;;;;;;;;;;;18.23;56.10;100228.47;5050020;28;1213;-64
2022/06/13 04:48:08;;;;;;;;;;;;;;;17.88;57.53;100233.31;5052206;28;1064;-64
2022/06/13 04:50:37;;;;;;;;;;;;;;;17.64;58.12;100227.84;5048452;28;1017;-63
2022/06/13 04:53:04;;;;;;;;;;;;;;;17.66;57.84;100235.81;5045346;28;1446;-62
2022/06/13 04:55:35;;;;;;;;;;;;;;;17.94;57.24;100242.34;5047790;28;1584;-60
2022/06/13 04:58:00;;;;;;;;;;;;;;;18.13;56.48;100234.94;5067274;28;1968;-59
2022/06/13 05:00:26;;;;;;;;;;;;;;;18.06;56.92;100222.63;5044284;28;1303;-61
2022/06/13 05:02:52;;;;;;;;;;;;;;;18.04;56.93;100236.69;5052444;28;1425;-60
2022/06/13 05:05:36;;;;;;;;;;;;;;;18.10;56.85;100246.53;5056262;28;1367;-63
2022/06/13 05:08:20;;;;;;;;;;;;;;;18.30;56.07;100239.09;5063192;28;1212;-62
2022/06/13 05:10:45;;;;;;;;;;;;;;;18.10;56.96;100240.19;5071442;28;1107;-62
2022/06/13 05:13:11;;;;;;;;;;;;;;;18.06;57.17;100248.25;5055221;28;996;-62
2022/06/13 05:15:36;;;;;;;;;;;;;;;17.73;57.77;100264.56;5068125;28;1168;-64
2022/06/13 05:18:13;;;;;;;;;;;;;;;17.61;58.17;100262.25;5076138;28;1910;-62
2022/06/13 05:20:58;;;;;;;;;;;;;;;18.04;57.03;100264.22;5068421;28;1147;-63
2022/06/13 05:23:42;;;;;;;;;;;;;;;17.93;57.04;100249.75;5071875;28;1159;-59
2022/06/13 05:26:07;;;;;;;;;;;;;;;17.88;57.24;100251.72;5066015;28;1567;-62
2022/06/13 05:28:34;;;;;;;;;;;;;;;17.97;57.03;100260.19;5074787;28;1021;-62
2022/06/13 05:31:00;;;;;;;;;;;;;;;17.87;57.48;100266.63;5069321;28;1095;-62
2022/06/13 05:33:29;;;;;;;;;;;;;;;17.76;57.54;100255.72;5070742;28;1222;-62
2022/06/13 05:35:56;;;;;;;;;;;;;;;17.98;57.01;100272.81;5070963;28;984;-61
2022/06/13 05:38:34;;;;;;;;;;;;;;;18.30;56.08;100272.13;5071915;28;1979;-62
2022/06/13 05:41:00;;;;;;;;;;;;;;;17.95;57.20;100296.25;5070416;28;1509;-60
2022/06/13 05:43:25;;;;;;;;;;;;;;;17.76;57.87;100310.72;5071520;28;1164;-61
2022/06/13 05:45:50;;;;;;;;;;;;;;;17.77;57.70;100315.13;5070806;28;910;-61
2022/06/13 05:48:16;;;;;;;;;;;;;;;17.91;57.13;100336.47;5068956;28;984;-63
2022/06/13 05:50:42;;;;;;;;;;;;;;;18.06;56.56;100344.53;5056129;28;996;-63
2022/06/13 05:53:15;;;;;;;;;;;;;;;17.92;56.84;100355.44;5054898;28;1040;-60
2022/06/13 05:55:40;;;;;;;;;;;;;;;17.82;57.43;100360.19;5064018;28;1036;-60
2022/06/13 05:58:06;;;;;;;;;;;;;;;17.64;57.78;100348.00;5044063;28;1985;-61
2022/06/13 06:00:38;;;;;;;;;;;;;;;17.88;57.06;100353.50;5068843;28;1155;-62
2022/06/13 06:03:04;;;;;;;;;;;;;;;18.27;55.86;100358.84;5057317;28;1074;-63
2022/06/13 06:05:29;;;;;;;;;;;;;;;17.92;56.86;100351.84;5071975;28;1406;-61
2022/06/13 06:07:55;;;;;;;;;;;;;;;17.86;57.25;100353.00;5075236;28;1036;-63
2022/06/13 06:10:22;;;;;;;;;;;;;;;17.78;57.23;100370.94;5066846;28;1007;-62
2022/06/13 06:12:48;;;;;;;;;;;;;;;18.05;56.16;100359.41;5056240;28;1277;-62
2022/06/13 06:15:13;;;;;;;;;;;;;;;18.15;56.06;100349.38;5069342;28;1646;-61
2022/06/13 06:17:39;;;;;;;;;;;;;;;17.99;56.57;100366.06;5075677;28;1914;-61
2022/06/13 06:20:04;;;;;;;;;;;;;;;17.74;57.23;100367.97;5059019;28;997;-62
2022/06/13 06:22:30;;;;;;;;;;;;;;;17.64;57.70;100370.81;5065686;28;1290;-62
2022/06/13 06:24:55;;;;;;;;;;;;;;;18.16;56.16;100371.09;5066832;28;1171;-60
2022/06/13 06:27:21;;;;;;;;;;;;;;;18.24;55.91;100380.63;5064616;28;1183;-61
2022/06/13 06:29:46;;;;;;;;;;;;;;;17.75;57.43;100375.13;5049532;28;1418;-62
2022/06/13 06:32:11;;;;;;;;;;;;;;;17.34;58.47;100374.69;5073473;28;1052;-61
2022/06/13 06:34:37;;;;;;;;;;;;;;;17.36;58.27;100367.78;5065439;28;1240;-60
2022/06/13 06:37:02;;;;;;;;;;;;;;;17.93;56.67;100367.25;5069786;28;968;-60
2022/06/13 06:39:28;;;;;;;;;;;;;;;17.98;56.28;100377.34;5071421;28;1958;-59
2022/06/13 06:41:53;;;;;;;;;;;;;;;18.44;55.41;100374.88;5063695;28;1129;-60
2022/06/13 06:44:19;;;;;;;;;;;;;;;19.66;52.00;100372.41;5066713;28;1291;-60
2022/06/13 06:46:44;;;;;;;;;;;;;;;20.74;49.74;100369.44;5067972;28;1238;-61
2022/06/13 06:49:10;;;;;;;;;;;;;;;19.19;53.89;100371.59;5070499;28;1146;-60
2022/06/13 06:51:35;;;;;;;;;;;;;;;18.15;56.78;100371.41;5074552;28;1059;-59
2022/06/13 07:02:26;;;;;;;;;;;;;;;17.49;58.11;100379.19;5049450;28;1505;-61
2022/06/13 07:04:55;;;;;;;;;;;;;;;17.31;59.03;100365.09;5066689;28;1412;-60
2022/06/13 07:07:20;;;;;;;;;;;;;;;15.78;62.43;100378.50;5066244;28;1179;-62
2022/06/13 07:09:46;;;;;;;;;;;;;;;18.81;60.67;100370.47;5066039;28;1103;-58
2022/06/13 07:12:11;;;;;;;;;;;;;;;18.62;59.57;100369.66;5065891;28;1441;-61
2022/06/13 07:14:36;;;;;;;;;;;;;;;18.00;59.64;100364.94;5066527;28;1032;-58
2022/06/13 07:17:03;;;;;;;;;;;;;;;17.82;58.74;100368.44;5064170;28;1155;-58
2022/06/13 07:19:28;;;;;;;;;;;;;;;17.57;58.46;100370.34;5071949;28;1913;-58
2022/06/13 07:21:53;;;;;;;;;;;;;;;17.42;58.26;100372.13;5065847;28;1219;-62
2022/06/13 07:24:20;;;;;;;;;;;;;;;17.36;57.67;100381.53;5066329;28;1338;-60
2022/06/13 07:26:46;;;;;;;;;;;;;;;17.30;57.41;100388.16;5069240;28;1261;-60
2022/06/13 07:29:12;;;;;;;;;;;;;;;17.24;57.35;100375.59;5064225;28;1574;-59
2022/06/13 07:31:41;;;;;;;;;;;;;;;17.22;57.08;100375.03;5063943;28;1261;-59
2022/06/13 07:34:07;;;;;;;;;;;;;;;17.18;57.03;100373.97;5050120;28;1441;-59
2022/06/13 07:36:33;;;;;;;;;;;;;;;17.15;57.03;100393.78;5057305;28;1388;-58
2022/06/13 07:38:58;;;;;;;;;;;;;;;17.22;57.34;100380.53;5068695;28;1968;-60
2022/06/13 07:41:24;;;;;;;;;;;;;;;17.17;57.42;100391.59;5069645;28;1012;-60
2022/06/13 07:43:50;;;;;;;;;;;;;;;17.17;57.26;100380.59;5070655;28;1531;-58
2022/06/13 07:46:15;;;;;;;;;;;;;;;17.14;57.01;100389.41;5070318;28;1304;-61
2022/06/13 07:48:41;;;;;;;;;;;;;;;17.17;56.79;100388.84;5070988;28;1502;-59
2022/06/13 07:51:06;;;;;;;;;;;;;;;17.05;56.86;100392.75;5071771;28;1464;-58
2022/06/13 07:53:32;;;;;;;;;;;;;;;17.02;56.69;100390.59;5064657;28;988;-59
2022/06/13 07:55:58;;;;;;;;;;;;;;;16.98;56.78;100386.75;5066653;28;1127;-58
2022/06/13 07:58:44;;;;;;;;;;;;;;;16.99;56.73;100399.41;5048439;28;1980;-58
2022/06/13 08:01:10;;;;;;;;;;;;;;;16.83;56.95;100395.91;5065813;28;1284;-59
2022/06/13 08:03:35;;;;;;;;;;;;;;;16.95;56.52;100397.53;5069047;28;1218;-60
2022/06/13 08:06:01;;;;;;;;;;;;;;;16.96;56.29;100391.75;5065609;28;1304;-58
2022/06/13 08:08:27;;;;;;;;;;;;;;;16.87;56.72;100401.66;5064907;28;1356;-60
2022/06/13 08:10:52;;;;;;;;;;;;;;;16.85;56.62;100403.88;5047573;28;1377;-60
2022/06/13 08:13:18;;;;;;;;;;;;;;;16.87;56.81;100399.75;5048329;28;1215;-62
2022/06/13 08:15:44;;;;;;;;;;;;;;;16.72;56.68;100406.13;5049188;28;1374;-60
2022/06/13 08:18:10;;;;;;;;;;;;;;;16.75;56.87;100394.56;5066692;28;1901;-57
2022/06/13 08:20:35;;;;;;;;;;;;;;;16.84;56.47;100407.72;5068423;28;1419;-60
2022/06/13 08:23:02;;;;;;;;;;;;;;;16.83;56.34;100406.06;5066069;28;1222;-60
2022/06/13 08:25:29;;;;;;;;;;;;;;;16.83;56.77;100395.91;5069167;28;1447;-56
2022/06/13 08:27:55;;;;;;;;;;;;;;;16.76;56.83;100389.94;5067195;28;1197;-58
2022/06/13 08:30:21;;;;;;;;;;;;;;;16.83;56.35;100400.56;5063586;28;1352;-58
2022/06/13 08:32:46;;;;;;;;;;;;;;;16.72;56.77;100397.09;5062877;28;1287;-57
2022/06/13 08:35:12;;;;;;;;;;;;;;;16.73;56.76;100410.53;5069895;28;1047;-57
2022/06/13 08:37:37;;;;;;;;;;;;;;;16.71;56.48;100404.47;5067826;28;1981;-57
2022/06/13 08:40:03;;;;;;;;;;;;;;;16.67;56.61;100399.84;5066981;28;1253;-56
2022/06/13 08:42:31;;;;;;;;;;;;;;;16.63;56.68;100399.59;5065605;28;1353;-57
2022/06/13 08:44:57;;;;;;;;;;;;;;;16.66;56.74;100399.03;5051387;28;1298;-56
2022/06/13 08:47:22;;;;;;;;;;;;;;;16.63;56.50;100402.34;5068770;28;1174;-56
2022/06/13 08:50:08;;;;;;;;;;;;;;;16.73;56.49;100412.44;5066531;28;964;-59
2022/06/13 08:52:52;;;;;;;;;;;;;;;16.69;56.52;100412.19;5054256;28;1990;-56
2022/06/13 08:55:21;;;;;;;;;;;;;;;16.59;56.56;100402.09;5067669;28;1150;-57
2022/06/13 08:57:51;;;;;;;;;;;;;;;16.56;56.84;100410.06;5048534;28;1980;-57
2022/06/13 09:00:19;;;;;;;;;;;;;;;16.61;56.60;100410.03;5045246;28;1159;-57
2022/06/13 09:02:50;;;;;;;;;;;;;;;16.58;56.73;100405.13;5050882;28;996;-57
2022/06/13 09:05:24;;;;;;;;;;;;;;;16.51;57.01;100399.94;5061192;28;1226;-57
2022/06/13 09:07:52;;;;;;;;;;;;;;;16.54;56.70;100409.53;5060175;28;1000;-56
2022/06/13 09:10:38;;;;;;;;;;;;;;;16.58;56.42;100405.13;5046389;28;1120;-57
2022/06/13 09:13:03;;;;;;;;;;;;;;;16.49;56.91;100417.78;5055643;28;1259;-58
2022/06/13 09:15:52;;;;;;;;;;;;;;;16.49;56.63;100413.09;5067334;28;1006;-59
2022/06/13 09:18:23;;;;;;;;;;;;;;;16.53;56.63;100413.38;5062923;28;1992;-57
2022/06/13 09:20:53;;;;;;;;;;;;;;;17.16;58.97;100411.94;5049457;28;1209;-57
2022/06/13 09:23:29;;;;;;;;;;;;;;;19.07;58.30;100411.47;5065692;28;1318;-57
2022/06/13 09:26:13;;;;;;;;;;;;;;;18.38;58.83;100405.50;5061488;28;1160;-57
2022/06/13 09:28:39;;;;;;;;;;;;;;;17.14;60.34;100408.63;5059156;28;1047;-57
2022/06/13 09:31:27;;;;;;;;;;;;;;;17.07;58.96;100403.47;5045829;28;1052;-57
2022/06/13 09:33:54;;;;;;;;;;;;;;;16.98;58.26;100403.25;5056867;28;1430;-57
2022/06/13 09:36:21;;;;;;;;;;;;;;;16.91;57.78;100400.00;5069426;28;996;-58
2022/06/13 09:39:02;;;;;;;;;;;;;;;16.90;57.40;100401.09;5045949;28;1909;-57
2022/06/13 09:41:28;;;;;;;;;;;;;;;16.85;57.54;100406.63;5059441;28;1055;-57
2022/06/13 09:44:12;;;;;;;;;;;;;;;16.79;57.22;100414.06;5064473;28;1170;-58
2022/06/13 09:46:44;;;;;;;;;;;;;;;16.79;57.00;100405.00;5066334;28;1091;-59
2022/06/13 09:49:12;;;;;;;;;;;;;;;16.73;57.36;100415.19;5050564;28;1008;-59
2022/06/13 09:51:50;;;;;;;;;;;;;;;16.47;58.38;100415.31;5076438;28;1222;-60
2022/06/13 09:54:21;;;;;;;;;;;;;;;16.37;64.46;100413.44;5071872;28;1223;-60
2022/06/13 09:56:57;;;;;;;;;;;;;;;18.35;62.02;100395.91;5071305;28;1299;-60
2022/06/13 09:59:25;;;;;;;;;;;;;;;19.68;59.77;100414.28;5050513;28;1914;-60
2022/06/13 10:05:32;;;;;;;;;;;;;;;16.39;70.66;100405.75;5065066;28;1120;-60
2022/06/13 10:08:02;;;;;;;;;;;;;;;19.25;62.35;100406.19;5065611;28;949;-59
2022/06/13 10:10:32;;;;;;;;;;;;;;;18.04;61.05;100406.47;5068007;28;1396;-60
2022/06/13 10:13:02;;;;;;;;;;;;;;;17.30;62.54;100392.84;5069040;28;1345;-61
2022/06/13 10:15:34;;;;;;;;;;;;;;;17.19;61.09;100394.84;5048313;28;1336;-61
2022/06/13 10:18:22;;;;;;;;;;;;;;;17.06;60.02;100397.16;5045742;28;1971;-60
2022/06/13 10:20:49;;;;;;;;;;;;;;;17.00;59.12;100395.56;5047945;28;1239;-59
2022/06/13 10:23:33;;;;;;;;;;;;;;;16.91;58.68;100397.25;5045161;28;1310;-59
2022/06/13 10:26:19;;;;;;;;;;;;;;;16.90;58.49;100385.47;5051047;28;1202;-60
2022/06/13 10:28:57;;;;;;;;;;;;;;;16.89;57.79;100372.03;5051161;28;1635;-59
2022/06/13 10:31:23;;;;;;;;;;;;;;;16.82;57.83;100379.72;5051775;28;1388;-59
2022/06/13 10:34:11;;;;;;;;;;;;;;;16.76;57.66;100389.94;5053734;28;1285;-61
2022/06/13 10:36:49;;;;;;;;;;;;;;;16.78;57.59;100376.72;5043589;28;1361;-61
2022/06/13 10:39:15;;;;;;;;;;;;;;;16.77;57.36;100369.56;5051094;28;1902;-60
2022/06/13 10:41:43;;;;;;;;;;;;;;;16.87;58.20;100372.28;5048141;28;985;-63
2022/06/13 10:44:09;;;;;;;;;;;;;;;17.03;57.58;100383.19;5047920;28;1017;-64
2022/06/13 10:46:34;;;;;;;;;;;;;;;16.91;57.78;100380.78;5051689;28;1108;-60
2022/06/13 10:49:18;;;;;;;;;;;;;;;16.94;57.53;100377.44;5049531;28;984;-60
2022/06/13 10:51:44;;;;;;;;;;;;;;;16.91;57.19;100380.78;5050826;28;1150;-59
2022/06/13 10:54:13;;;;;;;;;;;;;;;16.86;57.00;100376.13;5046574;28;993;-60
2022/06/13 10:56:43;;;;;;;;;;;;;;;16.75;57.15;100367.13;5047657;28;1202;-59
2022/06/13 10:59:28;;;;;;;;;;;;;;;16.83;56.78;100373.94;5056166;28;1905;-64
2022/06/13 11:01:58;;;;;;;;;;;;;;;16.75;56.79;100375.34;5045739;28;1090;-62
2022/06/13 11:04:24;;;;;;;;;;;;;;;16.75;56.58;100369.88;5053324;28;1274;-64
2022/06/13 11:06:50;;;;;;;;;;;;;;;16.78;56.47;100360.25;5043969;28;1098;-62
2022/06/13 11:09:35;;;;;;;;;;;;;;;16.77;56.58;100358.59;5047170;28;1234;-62
2022/06/13 11:12:02;;;;;;;;;;;;;;;16.76;56.71;100362.47;5043039;28;1280;-66
2022/06/13 11:14:27;;;;;;;;;;;;;;;16.73;56.53;100366.59;5044501;28;1241;-63
2022/06/13 11:22:40;;;;;;;;;;;;;;;16.65;57.26;100355.38;5062597;28;1145;-65
2022/06/13 11:25:14;;;;;;;;;;;;;;;16.64;57.25;100362.00;5064567;28;984;-66
2022/06/13 11:27:39;;;;;;;;;;;;;;;16.67;57.10;100359.47;5069251;28;1450;-65
2022/06/13 11:30:28;;;;;;;;;;;;;;;16.72;56.94;100361.41;5070112;28;887;-62
2022/06/13 11:33:04;;;;;;;;;;;;;;;16.80;56.42;100357.22;5051943;28;1280;-60
2022/06/13 11:35:32;;;;;;;;;;;;;;;16.74;56.71;100343.50;5074729;28;1187;-64
2022/06/13 11:38:10;;;;;;;;;;;;;;;16.76;57.03;100357.78;5069237;28;2396;-61
2022/06/13 11:40:36;;;;;;;;;;;;;;;16.76;57.13;100355.03;5066291;28;1167;-64
2022/06/13 11:43:01;;;;;;;;;;;;;;;16.81;57.14;100353.38;5063902;28;1179;-64
2022/06/13 11:45:27;;;;;;;;;;;;;;;16.77;57.22;100348.44;5071121;28;1155;-66
2022/06/13 11:47:52;;;;;;;;;;;;;;;16.81;57.27;100353.38;5052684;28;1039;-65
2022/06/13 11:50:22;;;;;;;;;;;;;;;16.82;57.38;100344.84;5063355;28;1273;-66
2022/06/13 11:55:36;;;;;;;;;;;;;;;16.94;57.94;100341.75;5053910;28;1207;-64
2022/06/13 11:58:02;;;;;;;;;;;;;;;16.90;58.72;100335.19;5071933;28;1978;-65
2022/06/13 12:00:27;;;;;;;;;;;;;;;17.01;59.01;100347.75;5046312;28;1192;-64
2022/06/13 12:02:54;;;;;;;;;;;;;;;16.95;59.00;100335.16;5050621;28;1209;-68
2022/06/13 12:05:32;;;;;;;;;;;;;;;17.19;58.91;100328.91;5062528;28;1029;-69
2022/06/13 12:08:19;;;;;;;;;;;;;;;17.14;59.78;100323.47;5048637;28;1112;-67
2022/06/13 12:10:55;;;;;;;;;;;;;;;17.17;60.06;100323.72;5061127;28;1276;-65
2022/06/13 12:13:22;;;;;;;;;;;;;;;17.30;59.94;100322.22;5069183;28;1000;-64
2022/06/13 12:15:56;;;;;;;;;;;;;;;17.31;60.08;100323.88;5066772;28;1126;-62
2022/06/13 12:18:56;;;;;;;;;;;;;;;17.36;60.06;100317.50;5070192;28;1902;-62
2022/06/13 12:21:25;;;;;;;;;;;;;;;17.33;59.93;100302.41;4990949;28;1392;-62
2022/06/13 12:23:50;;;;;;;;;;;;;;;17.44;59.40;100322.34;5052062;28;992;-62
2022/06/13 12:26:22;;;;;;;;;;;;;;;17.35;58.99;100319.44;5066587;28;1039;-63
2022/06/13 12:28:47;;;;;;;;;;;;;;;17.35;58.60;100297.44;5049666;28;1206;-68
2022/06/13 12:31:26;;;;;;;;;;;;;;;17.33;58.43;100305.16;5063554;28;1011;-65
2022/06/13 12:33:51;;;;;;;;;;;;;;;17.38;58.76;100296.06;5050836;28;1283;-67
2022/06/13 12:36:26;;;;;;;;;;;;;;;17.27;59.09;100295.31;5062010;28;1148;-60
2022/06/13 12:38:56;;;;;;;;;;;;;;;17.42;59.47;100289.66;5059827;28;1981;-65
2022/06/13 12:41:24;;;;;;;;;;;;;;;17.55;59.11;100279.91;5046432;28;1024;-64
2022/06/13 12:43:50;;;;;;;;;;;;;;;17.56;59.01;100275.25;5068533;28;965;-62
2022/06/13 12:46:27;;;;;;;;;;;;;;;17.51;58.37;100287.09;5066911;28;958;-64
2022/06/13 12:49:10;;;;;;;;;;;;;;;17.41;58.36;100290.78;5066557;28;1186;-65
2022/06/13 12:51:45;;;;;;;;;;;;;;;17.42;57.99;100297.91;5047061;28;993;-64
2022/06/13 12:54:11;;;;;;;;;;;;;;;17.44;57.64;100289.38;5047478;28;1294;-64
2022/06/13 12:56:59;;;;;;;;;;;;;;;17.43;57.78;100288.56;5062988;28;1194;-65
2022/06/13 12:59:34;;;;;;;;;;;;;;;17.49;57.73;100286.59;5053936;28;1984;-59
2022/06/13 13:02:03;;;;;;;;;;;;;;;17.36;57.87;100271.59;5062514;28;948;-61
2022/06/13 13:04:32;;;;;;;;;;;;;;;17.39;57.92;100282.00;5074744;28;1039;-62
2022/06/13 13:07:13;;;;;;;;;;;;;;;17.34;57.85;100290.31;5063173;28;1397;-61
2022/06/13 13:09:59;;;;;;;;;;;;;;;17.34;57.65;100301.28;5054645;28;1574;-61
2022/06/13 13:12:43;;;;;;;;;;;;;;;17.34;57.68;100311.47;5042787;28;1258;-64
2022/06/13 13:15:11;;;;;;;;;;;;;;;17.26;57.64;100299.16;5064582;28;1523;-61
2022/06/13 13:17:47;;;;;;;;;;;;;;;17.08;57.63;100304.28;5061852;28;1996;-64
2022/06/13 13:20:12;;;;;;;;;;;;;;;17.16;57.40;100313.03;5056319;28;1303;-66
2022/06/13 13:22:43;;;;;;;;;;;;;;;17.05;57.39;100312.28;5072251;28;1449;-65
2022/06/13 13:25:18;;;;;;;;;;;;;;;17.03;57.11;100320.81;5046920;28;1235;-65
2022/06/13 13:27:51;;;;;;;;;;;;;;;16.99;57.08;100333.47;5077178;28;798;-64